createdAt,value
2022-10-19T00:01:30.956Z,99.56
2022-10-19T00:03:57.556Z,98.88
2022-10-19T00:06:26.874Z,98.34
2022-10-19T00:11:55.409Z,97.90
2022-10-19T00:14:23.578Z,97.63
2022-10-19T00:16:51.703Z,98.41
2022-10-19T00:19:23.978Z,98.37
2022-10-19T00:24:17.195Z,98.75
2022-10-19T00:26:43.759Z,99.00
2022-10-19T00:29:11.995Z,98.63
2022-10-19T00:31:38.748Z,98.31
2022-10-19T00:34:08.980Z,98.48
2022-10-19T00:36:40.175Z,98.28
2022-10-19T00:39:08.706Z,98.45
2022-10-19T00:41:37.580Z,98.77
2022-10-19T00:44:04.065Z,98.01
2022-10-19T00:46:33.091Z,98.80
2022-10-19T00:49:10.923Z,99.47
2022-10-19T00:51:40.334Z,99.66
2022-10-19T00:54:07.625Z,99.75
2022-10-19T00:56:36.953Z,99.23
2022-10-19T00:59:04.749Z,99.30
2022-10-19T01:01:33.024Z,99.63
2022-10-19T01:04:00.014Z,100.00
2022-10-19T01:06:26.876Z,100.00
2022-10-19T01:08:53.411Z,99.83
2022-10-19T01:11:29.132Z,98.82
2022-10-19T01:14:09.177Z,99.15
2022-10-19T01:16:42.247Z,98.40
2022-10-19T01:19:53.266Z,97.93
2022-10-19T01:23:10.225Z,98.83
2022-10-19T01:26:01.081Z,98.64
2022-10-19T01:28:52.152Z,98.85
2022-10-19T01:31:26.951Z,99.10
2022-10-19T01:34:02.433Z,99.84
2022-10-19T01:36:39.391Z,99.56
2022-10-19T01:39:10.895Z,99.54
2022-10-19T01:41:58.334Z,99.11
2022-10-19T01:44:35.246Z,99.21
2022-10-19T01:47:05.643Z,99.30
2022-10-19T01:49:32.076Z,98.64
2022-10-19T01:52:02.078Z,98.86
2022-10-19T01:54:30.876Z,99.61
2022-10-19T01:56:59.309Z,100.00
2022-10-19T01:59:26.343Z,99.74
2022-10-19T02:02:03.263Z,100.00
2022-10-19T02:04:30.933Z,100.00
2022-10-19T02:06:57.796Z,99.83
2022-10-19T02:09:25.655Z,100.00
2022-10-19T02:12:00.181Z,100.00
2022-10-19T02:14:34.055Z,99.68
2022-10-19T02:17:48.942Z,99.64
2022-10-19T02:20:22.858Z,98.93
2022-10-19T02:22:49.787Z,99.79
2022-10-19T02:25:20.744Z,99.95
2022-10-19T02:27:50.186Z,100.00
2022-10-19T02:30:20.405Z,100.00
2022-10-19T02:32:46.892Z,100.00
2022-10-19T02:35:18.312Z,100.00
2022-10-19T02:37:44.983Z,99.43
2022-10-19T02:40:11.915Z,99.02
2022-10-19T02:42:38.381Z,98.49
2022-10-19T02:45:13.387Z,98.93
2022-10-19T02:47:45.194Z,99.25
2022-10-19T02:50:19.136Z,99.12
2022-10-19T02:52:45.687Z,99.45
2022-10-19T02:55:12.205Z,99.13
2022-10-19T02:57:38.807Z,99.44
2022-10-19T03:00:07.169Z,99.73
2022-10-19T03:02:33.842Z,99.21
2022-10-19T03:05:00.460Z,99.11
2022-10-19T03:07:27.202Z,99.00
2022-10-19T03:09:56.801Z,99.15
2022-10-19T03:12:23.530Z,98.88
2022-10-19T03:14:50.277Z,98.62
2022-10-19T03:17:16.771Z,98.66
2022-10-19T03:19:43.326Z,97.92
2022-10-19T03:22:14.601Z,98.20
2022-10-19T03:24:41.197Z,98.40
2022-10-19T03:27:07.742Z,98.57
2022-10-19T03:29:36.425Z,98.32
2022-10-19T03:32:03.079Z,98.57
2022-10-19T03:34:29.629Z,98.02
2022-10-19T03:36:56.784Z,99.10
2022-10-19T03:39:23.317Z,99.26
2022-10-19T03:41:49.830Z,100.00
2022-10-19T03:44:19.643Z,100.00
2022-10-19T03:46:46.208Z,100.00
2022-10-19T03:49:14.257Z,100.00
2022-10-19T03:51:41.348Z,100.00
2022-10-19T03:54:12.594Z,100.00
2022-10-19T03:56:39.117Z,100.00
2022-10-19T03:59:12.494Z,100.00
2022-10-19T04:01:47.889Z,100.00
2022-10-19T04:04:17.015Z,100.00
2022-10-19T04:06:45.208Z,100.00
2022-10-19T04:09:14.856Z,100.00
2022-10-19T04:11:41.906Z,100.00
2022-10-19T04:16:36.198Z,100.00
2022-10-19T04:19:02.974Z,100.00
2022-10-19T04:21:31.517Z,100.00
2022-10-19T04:24:02.982Z,100.00
2022-10-19T04:26:29.978Z,100.00
2022-10-19T04:29:00.994Z,100.00
2022-10-19T04:31:29.315Z,100.00
2022-10-19T08:31:36.752Z,100.00
2022-10-19T08:34:03.957Z,100.00
2022-10-19T08:36:32.547Z,100.00
2022-10-19T08:38:59.212Z,100.00
2022-10-19T08:41:40.952Z,100.00
2022-10-19T08:44:38.466Z,100.00
2022-10-19T08:47:32.425Z,100.00
2022-10-19T08:50:00.042Z,100.00
2022-10-19T08:52:36.108Z,100.00
2022-10-19T08:55:09.119Z,100.00
2022-10-19T08:57:49.859Z,100.00
2022-10-19T09:00:36.995Z,100.00
2022-10-19T09:04:00.796Z,100.00
2022-10-19T09:06:31.866Z,100.00
2022-10-19T09:08:58.614Z,100.00
2022-10-19T09:11:28.295Z,100.00
2022-10-19T09:14:05.229Z,100.00
2022-10-19T09:16:33.024Z,100.00
2022-10-19T09:18:59.558Z,100.00
2022-10-19T09:21:45.951Z,100.00
2022-10-19T09:24:36.062Z,100.00
2022-10-19T09:27:03.440Z,100.00
2022-10-19T09:29:43.780Z,100.00
2022-10-19T09:32:15.494Z,100.00
2022-10-19T09:34:45.734Z,100.00
2022-10-19T09:37:18.872Z,100.00
2022-10-19T09:39:54.028Z,100.00
2022-10-19T09:42:22.411Z,100.00
2022-10-19T09:44:50.789Z,100.00
2022-10-19T09:47:29.532Z,100.00
2022-10-19T09:50:17.747Z,100.00
2022-10-19T09:52:46.482Z,100.00
2022-10-19T09:55:22.318Z,100.00
2022-10-19T09:57:51.360Z,100.00
2022-10-19T10:00:22.406Z,100.00
2022-10-19T10:02:53.986Z,100.00
2022-10-19T10:05:30.120Z,99.93
2022-10-19T10:07:59.497Z,100.00
2022-10-19T10:13:23.854Z,100.00
2022-10-19T10:15:55.648Z,100.00
2022-10-19T10:18:23.882Z,99.74
2022-10-19T10:23:26.323Z,98.99
2022-10-19T10:25:57.191Z,99.40
2022-10-19T10:28:29.712Z,100.00
2022-10-19T10:31:05.379Z,99.38
2022-10-19T10:33:50.605Z,98.88
2022-10-19T10:36:18.454Z,98.95
2022-10-19T10:38:47.595Z,97.93
2022-10-19T10:41:20.335Z,96.92
2022-10-19T10:43:56.696Z,96.82
2022-10-19T10:46:27.706Z,97.27
2022-10-19T10:48:59.151Z,96.38
2022-10-19T10:51:28.382Z,98.01
2022-10-19T10:54:09.292Z,97.70
2022-10-19T10:56:40.303Z,97.02
2022-10-19T10:59:17.481Z,96.18
2022-10-19T11:02:00.273Z,96.97
2022-10-19T11:04:35.137Z,96.30
2022-10-19T11:07:09.718Z,96.51
2022-10-19T11:09:38.792Z,95.19
2022-10-19T11:12:06.759Z,96.94
2022-10-19T11:14:39.222Z,96.13
2022-10-19T11:17:08.057Z,95.09
2022-10-19T11:19:42.144Z,95.17
2022-10-19T11:22:33.501Z,94.27
2022-10-19T11:25:22.099Z,94.75
2022-10-19T11:27:57.901Z,94.77
2022-10-19T11:30:25.318Z,93.03
2022-10-19T11:32:51.771Z,94.86
2022-10-19T11:35:40.070Z,94.20
2022-10-19T11:38:20.285Z,93.64
2022-10-19T11:41:17.393Z,92.04
2022-10-19T11:44:09.639Z,91.42
2022-10-19T11:46:58.998Z,91.77
2022-10-19T11:49:37.414Z,91.34
2022-10-19T11:52:16.044Z,91.14
2022-10-19T11:55:01.771Z,90.79
2022-10-19T11:57:45.284Z,89.77
2022-10-19T12:00:37.508Z,89.07
2022-10-19T12:03:27.271Z,89.84
2022-10-19T12:06:12.701Z,90.08
2022-10-19T12:08:56.393Z,89.56
2022-10-19T12:12:20.218Z,91.43
2022-10-19T12:14:49.166Z,90.94
2022-10-19T12:17:21.077Z,89.16
2022-10-19T12:20:01.470Z,90.36
2022-10-19T12:22:29.904Z,90.21
2022-10-19T12:24:59.167Z,88.10
2022-10-19T12:27:33.612Z,88.94
2022-10-19T12:30:15.487Z,87.85
2022-10-19T12:33:00.820Z,88.84
2022-10-19T12:35:55.936Z,88.41
2022-10-19T12:38:32.286Z,88.82
2022-10-19T12:41:07.470Z,88.53
2022-10-19T12:43:55.265Z,85.95
2022-10-19T12:46:58.782Z,86.73
2022-10-19T12:49:27.138Z,85.77
2022-10-19T12:51:55.863Z,88.49
2022-10-19T12:54:24.537Z,87.70
2022-10-19T12:56:53.686Z,87.37
2022-10-19T12:59:34.439Z,87.95
2022-10-19T13:02:02.877Z,85.67
2022-10-19T13:04:33.870Z,85.10
2022-10-19T13:07:08.070Z,85.71
2022-10-19T13:09:45.816Z,84.65
2022-10-19T13:12:25.633Z,86.83
2022-10-19T13:15:03.973Z,85.67
2022-10-19T13:17:38.228Z,86.00
2022-10-19T13:20:14.057Z,85.35
2022-10-19T13:22:46.759Z,84.27
2022-10-19T13:25:16.547Z,84.79
2022-10-19T13:27:44.688Z,85.30
2022-10-19T13:30:42.440Z,85.53
2022-10-19T13:33:37.708Z,86.04
2022-10-19T13:36:09.665Z,85.34
2022-10-19T13:38:57.346Z,85.04
2022-10-19T13:41:49.479Z,84.23
2022-10-19T13:44:20.112Z,84.17
2022-10-19T13:46:53.186Z,85.23
2022-10-19T13:49:47.459Z,84.94
2022-10-19T13:52:28.266Z,85.26
2022-10-19T13:55:31.855Z,85.03
2022-10-19T13:58:20.409Z,85.60
2022-10-19T14:00:56.057Z,86.36
2022-10-19T14:03:50.529Z,85.76
2022-10-19T14:07:11.687Z,85.75
2022-10-19T14:09:44.171Z,85.12
2022-10-19T14:12:26.462Z,84.73
2022-10-19T14:14:55.841Z,85.47
2022-10-19T14:17:30.161Z,85.75
2022-10-19T14:20:00.234Z,84.69
